Adams, Minnesota
Current Conditions -  °F | °C
As of 4:36 AM on Friday 19 Dec 2014 (Local Time) from KAUM Reporting Station
Overcast Overcast  
Wind Chill: 17°   Ceiling: 3600
Heat Index: 23°   Visibility: 7mi
Dew Point: 19°   Wind: 5mph
Humidity: 86%   Direction: 190°S
Pressure: 30.24"   Gusts: NA
Location:  43.57°N, 92.72°W
Report Text: KAUM 191036Z AUTO 19004KT 7SM SCT031 OVC036 M05/M07 A3024 RMK AO2
Loading
Personal Weather Stations






























Interactive Weather Map New forecast layout! Learn more

10-Day Weather Forecast

Advertisements
Track Severe Weather on mobile